Megan B. Settoon — WDD7489 — position and weather

sailwx.info

Track history (hours):
 
Tides and Currents Weather Stations Pressure Air Temp Water Temp Dewpoint Dewpoint Depression Visibility Wind Speed Wind Dir Waves Ship Positions

Megan B. Settoon

Owner: Settoon Towing, L.L.C., Pierre Part, LA. More information available from US FCC via Universal Licensing System and Coast Guard Vessel Documentation Center.

Last reported at 2017-Nov-19 15:14 UTC. Time now 2017-Nov-21 21:22 UTC.
Position N 29°34' W 090°33'.

Length 30 m; draft 6 m.

MMSI: 367187140.

Date/timePositionNaut miles runAvg speedWind from/ knotsBaromVisibWave heightAir tempDewpointWater temp
2017-Nov-19 15:14N 29°34' W 090°33'2 6.5
2017-Nov-19 15:00N 29°34' W 090°34'3 6.2
2017-Nov-19 14:30N 29°35' W 090°38'3 6.6
2017-Nov-19 14:00N 29°36' W 090°41'2 4.5
2017-Nov-19 13:30N 29°35' W 090°43'0 0.1
2017-Nov-19 13:00N 29°35' W 090°43'0 0.0
2017-Nov-19 12:30N 29°35' W 090°43'0 0.0
2017-Nov-19 12:00N 29°35' W 090°43'0 0.0
2017-Nov-19 11:30N 29°35' W 090°43'0 0.0
2017-Nov-19 11:00N 29°35' W 090°43'0 0.0
2017-Nov-19 10:30N 29°35' W 090°43'0 0.0
2017-Nov-19 10:00N 29°35' W 090°43'0 0.0
2017-Nov-19 09:30N 29°35' W 090°43'0 0.0
2017-Nov-19 09:00N 29°35' W 090°43'0 0.0
2017-Nov-19 08:30N 29°35' W 090°43'0 0.0
2017-Nov-19 08:00N 29°35' W 090°43'0 0.0
2017-Nov-19 07:30N 29°35' W 090°43'0 0.0
2017-Nov-19 07:00N 29°35' W 090°43'0 0.0
2017-Nov-19 06:30N 29°35' W 090°43'0 0.0
2017-Nov-19 06:00N 29°35' W 090°43'0 0.0
2017-Nov-19 05:30N 29°35' W 090°43'0 0.0
2017-Nov-19 05:00N 29°35' W 090°43'0 0.0
2017-Nov-19 04:30N 29°35' W 090°43'0 0.0
2017-Nov-19 04:00N 29°35' W 090°43'0 0.0
2017-Nov-19 03:30N 29°35' W 090°43'0 0.0
2017-Nov-19 03:00N 29°35' W 090°43'0 0.0
2017-Nov-19 02:30N 29°35' W 090°43'0 0.0
2017-Nov-19 02:00N 29°35' W 090°43'0 0.0
2017-Nov-19 01:30N 29°35' W 090°43'0 0.0
2017-Nov-19 01:00N 29°35' W 090°43'0 0.0
2017-Nov-19 00:30N 29°35' W 090°43'0 0.0
2017-Nov-19 00:00N 29°35' W 090°43'0 0.0
2017-Nov-18 23:30N 29°35' W 090°43'0 0.4
2017-Nov-18 23:00N 29°35' W 090°43'3 5.3
2017-Nov-18 22:30N 29°33' W 090°45'3 6.5
2017-Nov-18 22:00N 29°32' W 090°49'2 0.1
2017-Nov-18 01:30N 29°32' W 090°52'3 6.4
2017-Nov-18 01:00N 29°32' W 090°48'3 5.6
2017-Nov-18 00:30N 29°33' W 090°45'2 4.1
2017-Nov-18 00:00N 29°34' W 090°43'0 0.0
2017-Nov-17 23:30N 29°34' W 090°43'0 0.0
2017-Nov-17 23:00N 29°34' W 090°43'0 0.9
2017-Nov-17 22:30N 29°34' W 090°43'3 6.1
2017-Nov-17 22:00N 29°30' W 090°43'3 6.1
2017-Nov-17 21:30N 29°27' W 090°43'3 5.9
2017-Nov-17 21:00N 29°25' W 090°44'0 0.0
2017-Nov-16 17:27N 29°25' W 090°44'3 7.9
2017-Nov-16 17:00N 29°28' W 090°43'4 7.9
2017-Nov-16 16:30N 29°32' W 090°42'3 5.3
2017-Nov-16 16:00N 29°34' W 090°43'0 0.9
2017-Nov-16 15:30N 29°35' W 090°43'0 0.0
2017-Nov-16 15:00N 29°35' W 090°43'0 0.0
2017-Nov-16 14:30N 29°35' W 090°43'0 0.0
2017-Nov-16 14:00N 29°35' W 090°43'0 0.0
2017-Nov-16 13:30N 29°35' W 090°43'0 0.0
2017-Nov-16 13:00N 29°35' W 090°43'0 0.2
2017-Nov-16 12:30N 29°35' W 090°43'0 0.0
2017-Nov-16 12:00N 29°35' W 090°43'0 0.0
2017-Nov-16 11:30N 29°35' W 090°43'0 0.0
2017-Nov-16 11:00N 29°35' W 090°43'0 0.0
2017-Nov-16 10:30N 29°35' W 090°43'0 0.0
2017-Nov-16 10:00N 29°35' W 090°43'0 0.0
2017-Nov-16 09:30N 29°35' W 090°43'0 0.0
2017-Nov-16 09:00N 29°35' W 090°43'0 0.0
2017-Nov-16 08:30N 29°35' W 090°43'0 0.0
2017-Nov-16 08:00N 29°35' W 090°43'0 0.0
2017-Nov-16 07:30N 29°35' W 090°43'0 0.0
2017-Nov-16 07:00N 29°35' W 090°43'0 0.0
2017-Nov-16 06:30N 29°35' W 090°43'0 0.0
2017-Nov-16 06:00N 29°35' W 090°43'0 0.0
2017-Nov-16 05:30N 29°35' W 090°43'0 0.0
2017-Nov-16 05:00N 29°35' W 090°43'0 0.0
2017-Nov-16 04:30N 29°35' W 090°43'0 0.0
2017-Nov-16 04:00N 29°35' W 090°43'0 0.0
2017-Nov-16 03:30N 29°35' W 090°43'0 0.0
2017-Nov-16 03:00N 29°35' W 090°43'0 0.2
2017-Nov-16 02:30N 29°35' W 090°43'2 3.7
2017-Nov-16 02:00N 29°37' W 090°42'0 0.9
2017-Nov-16 01:30N 29°37' W 090°42'0 0.4
2017-Nov-16 01:00N 29°37' W 090°42'3 5.7
2017-Nov-16 00:30N 29°36' W 090°39'3 5.4
2017-Nov-16 00:00N 29°35' W 090°36'1 1.2
2017-Nov-15 23:30N 29°35' W 090°35'3 6.3
2017-Nov-15 23:00N 29°34' W 090°32'3 6.2
2017-Nov-15 22:30N 29°33' W 090°28'  
2017-Nov-12 05:11N 29°34' W 090°56'2 6.3
2017-Nov-12 04:56N 29°33' W 090°55'3 6.2
2017-Nov-12 04:29N 29°32' W 090°52'3 5.6
2017-Nov-12 04:00N 29°32' W 090°49'3 5.7
2017-Nov-12 03:30N 29°33' W 090°45'3 5.1
2017-Nov-12 03:00N 29°34' W 090°43'2 4.2
2017-Nov-12 02:30N 29°36' W 090°43'2 4.0
2017-Nov-12 02:00N 29°36' W 090°40'2 2.9
2017-Nov-12 01:30N 29°35' W 090°39'3 5.2
2017-Nov-12 01:00N 29°35' W 090°36'2 5.0
2017-Nov-12 00:30N 29°34' W 090°33'3 6.2
2017-Nov-12 00:00N 29°34' W 090°30'1 0.0
2017-Nov-09 20:57N 29°33' W 090°28'3 7.0
2017-Nov-09 20:30N 29°34' W 090°32'3 6.9
2017-Nov-09 20:00N 29°35' W 090°36'3 6.6
2017-Nov-09 19:30N 29°36' W 090°39'3 6.0
2017-Nov-09 19:01N 29°37' W 090°42'2 3.5
2017-Nov-09 18:30N 29°35' W 090°43'0 0.0
2017-Nov-09 18:00N 29°35' W 090°43'0 0.0
2017-Nov-09 17:31N 29°35' W 090°43'0 0.0
2017-Nov-09 17:00N 29°35' W 090°43'0 0.0
2017-Nov-09 16:30N 29°35' W 090°43'0 0.0
2017-Nov-09 16:00N 29°35' W 090°43'0 0.0
2017-Nov-09 15:30N 29°35' W 090°43'  
Track history (hours):
 
Tides and Currents Weather Stations Pressure Air Temp Water Temp Dewpoint Dewpoint Depression Visibility Wind Speed Wind Dir Waves Ship Positions

Megan B. Settoon

Owner: Settoon Towing, L.L.C., Pierre Part, LA. More information available from US FCC via Universal Licensing System and Coast Guard Vessel Documentation Center.

Last reported at 2017-Nov-19 15:14 UTC. Time now 2017-Nov-21 21:22 UTC.
Position N 29°34' W 090°33'.

Length 30 m; draft 6 m.

MMSI: 367187140.

Date/timePositionNaut miles runAvg speedWind from/ knotsBaromVisibWave heightAir tempDewpointWater temp
2017-Nov-19 15:14N 29°34' W 090°33'2 6.5
2017-Nov-19 15:00N 29°34' W 090°34'3 6.2
2017-Nov-19 14:30N 29°35' W 090°38'3 6.6
2017-Nov-19 14:00N 29°36' W 090°41'2 4.5
2017-Nov-19 13:30N 29°35' W 090°43'0 0.1
2017-Nov-19 13:00N 29°35' W 090°43'0 0.0
2017-Nov-19 12:30N 29°35' W 090°43'0 0.0
2017-Nov-19 12:00N 29°35' W 090°43'0 0.0
2017-Nov-19 11:30N 29°35' W 090°43'0 0.0
2017-Nov-19 11:00N 29°35' W 090°43'0 0.0
2017-Nov-19 10:30N 29°35' W 090°43'0 0.0
2017-Nov-19 10:00N 29°35' W 090°43'0 0.0
2017-Nov-19 09:30N 29°35' W 090°43'0 0.0
2017-Nov-19 09:00N 29°35' W 090°43'0 0.0
2017-Nov-19 08:30N 29°35' W 090°43'0 0.0
2017-Nov-19 08:00N 29°35' W 090°43'0 0.0
2017-Nov-19 07:30N 29°35' W 090°43'0 0.0
2017-Nov-19 07:00N 29°35' W 090°43'0 0.0
2017-Nov-19 06:30N 29°35' W 090°43'0 0.0
2017-Nov-19 06:00N 29°35' W 090°43'0 0.0
2017-Nov-19 05:30N 29°35' W 090°43'0 0.0
2017-Nov-19 05:00N 29°35' W 090°43'0 0.0
2017-Nov-19 04:30N 29°35' W 090°43'0 0.0
2017-Nov-19 04:00N 29°35' W 090°43'0 0.0
2017-Nov-19 03:30N 29°35' W 090°43'0 0.0
2017-Nov-19 03:00N 29°35' W 090°43'0 0.0
2017-Nov-19 02:30N 29°35' W 090°43'0 0.0
2017-Nov-19 02:00N 29°35' W 090°43'0 0.0
2017-Nov-19 01:30N 29°35' W 090°43'0 0.0
2017-Nov-19 01:00N 29°35' W 090°43'0 0.0
2017-Nov-19 00:30N 29°35' W 090°43'0 0.0
2017-Nov-19 00:00N 29°35' W 090°43'0 0.0
2017-Nov-18 23:30N 29°35' W 090°43'0 0.4
2017-Nov-18 23:00N 29°35' W 090°43'3 5.3
2017-Nov-18 22:30N 29°33' W 090°45'3 6.5
2017-Nov-18 22:00N 29°32' W 090°49'2 0.1
2017-Nov-18 01:30N 29°32' W 090°52'3 6.4
2017-Nov-18 01:00N 29°32' W 090°48'3 5.6
2017-Nov-18 00:30N 29°33' W 090°45'2 4.1
2017-Nov-18 00:00N 29°34' W 090°43'0 0.0
2017-Nov-17 23:30N 29°34' W 090°43'0 0.0
2017-Nov-17 23:00N 29°34' W 090°43'0 0.9
2017-Nov-17 22:30N 29°34' W 090°43'3 6.1
2017-Nov-17 22:00N 29°30' W 090°43'3 6.1
2017-Nov-17 21:30N 29°27' W 090°43'3 5.9
2017-Nov-17 21:00N 29°25' W 090°44'0 0.0
2017-Nov-16 17:27N 29°25' W 090°44'3 7.9
2017-Nov-16 17:00N 29°28' W 090°43'4 7.9
2017-Nov-16 16:30N 29°32' W 090°42'3 5.3
2017-Nov-16 16:00N 29°34' W 090°43'0 0.9
2017-Nov-16 15:30N 29°35' W 090°43'0 0.0
2017-Nov-16 15:00N 29°35' W 090°43'0 0.0
2017-Nov-16 14:30N 29°35' W 090°43'0 0.0
2017-Nov-16 14:00N 29°35' W 090°43'0 0.0
2017-Nov-16 13:30N 29°35' W 090°43'0 0.0
2017-Nov-16 13:00N 29°35' W 090°43'0 0.2
2017-Nov-16 12:30N 29°35' W 090°43'0 0.0
2017-Nov-16 12:00N 29°35' W 090°43'0 0.0
2017-Nov-16 11:30N 29°35' W 090°43'0 0.0
2017-Nov-16 11:00N 29°35' W 090°43'0 0.0
2017-Nov-16 10:30N 29°35' W 090°43'0 0.0
2017-Nov-16 10:00N 29°35' W 090°43'0 0.0
2017-Nov-16 09:30N 29°35' W 090°43'0 0.0
2017-Nov-16 09:00N 29°35' W 090°43'0 0.0
2017-Nov-16 08:30N 29°35' W 090°43'0 0.0
2017-Nov-16 08:00N 29°35' W 090°43'0 0.0
2017-Nov-16 07:30N 29°35' W 090°43'0 0.0
2017-Nov-16 07:00N 29°35' W 090°43'0 0.0
2017-Nov-16 06:30N 29°35' W 090°43'0 0.0
2017-Nov-16 06:00N 29°35' W 090°43'0 0.0
2017-Nov-16 05:30N 29°35' W 090°43'0 0.0
2017-Nov-16 05:00N 29°35' W 090°43'0 0.0
2017-Nov-16 04:30N 29°35' W 090°43'0 0.0
2017-Nov-16 04:00N 29°35' W 090°43'0 0.0
2017-Nov-16 03:30N 29°35' W 090°43'0 0.0
2017-Nov-16 03:00N 29°35' W 090°43'0 0.2
2017-Nov-16 02:30N 29°35' W 090°43'2 3.7
2017-Nov-16 02:00N 29°37' W 090°42'0 0.9
2017-Nov-16 01:30N 29°37' W 090°42'0 0.4
2017-Nov-16 01:00N 29°37' W 090°42'3 5.7
2017-Nov-16 00:30N 29°36' W 090°39'3 5.4
2017-Nov-16 00:00N 29°35' W 090°36'1 1.2
2017-Nov-15 23:30N 29°35' W 090°35'3 6.3
2017-Nov-15 23:00N 29°34' W 090°32'3 6.2
2017-Nov-15 22:30N 29°33' W 090°28'  
2017-Nov-12 05:11N 29°34' W 090°56'2 6.3
2017-Nov-12 04:56N 29°33' W 090°55'3 6.2
2017-Nov-12 04:29N 29°32' W 090°52'3 5.6
2017-Nov-12 04:00N 29°32' W 090°49'3 5.7
2017-Nov-12 03:30N 29°33' W 090°45'3 5.1
2017-Nov-12 03:00N 29°34' W 090°43'2 4.2
2017-Nov-12 02:30N 29°36' W 090°43'2 4.0
2017-Nov-12 02:00N 29°36' W 090°40'2 2.9
2017-Nov-12 01:30N 29°35' W 090°39'3 5.2
2017-Nov-12 01:00N 29°35' W 090°36'2 5.0
2017-Nov-12 00:30N 29°34' W 090°33'3 6.2
2017-Nov-12 00:00N 29°34' W 090°30'1 0.0
2017-Nov-09 20:57N 29°33' W 090°28'3 7.0
2017-Nov-09 20:30N 29°34' W 090°32'3 6.9
2017-Nov-09 20:00N 29°35' W 090°36'3 6.6
2017-Nov-09 19:30N 29°36' W 090°39'3 6.0
2017-Nov-09 19:01N 29°37' W 090°42'2 3.5
2017-Nov-09 18:30N 29°35' W 090°43'0 0.0
2017-Nov-09 18:00N 29°35' W 090°43'0 0.0
2017-Nov-09 17:31N 29°35' W 090°43'0 0.0
2017-Nov-09 17:00N 29°35' W 090°43'0 0.0
2017-Nov-09 16:30N 29°35' W 090°43'0 0.0
2017-Nov-09 16:00N 29°35' W 090°43'0 0.0
2017-Nov-09 15:30N 29°35' W 090°43'  

Dump ship's entire track history